MKJP/KIN METAR and TAF weather

Enter ICAO airport designator
Station Type Date Time Source
MKJP METAR 2022/06/29 00:00 UTC NOAA

MKJP 290000Z 10004KT 9999 FEW020 FEW022CB BKN032 27/23 Q1016


Station Type Date Time Source
MKJP Decoded METAR 2022/06/29 00:00 UTC NOAA

Kingston / Norman Manley, Jamaica (MKJP) 17-56N 076-47W 14M
Jun 28, 2022 - 08:00 PM EDT / 2022.06.29 0000 UTC
Wind: from the E (100 degrees) at 5 MPH (4 KT):0
Visibility: greater than 7 mile(s):0
Sky conditions: mostly cloudy
Weather: Cumulonimbus clouds observed
Temperature: 80 F (27 C)
Dew Point: 73 F (23 C)
Relative Humidity: 78%
Pressure (altimeter): 30.00 in. Hg (1016 hPa)
ob: MKJP 290000Z 10004KT 9999 FEW020 FEW022CB BKN032 27/23 Q1016
cycle: 0

Station Type Date Time Source
MKJP TAF 2022/06/28 18:19 UTC NOAA

TAF MKJP 281715Z 2818/2918 13015KT 9999 SCT020 SCT022CB
TEMPO 2818/2823 5000 TSRA SQ BKN016 BKN018CB
BECMG 2902/2904 35005KT

Example: see airport list